createdAt,value
2019-01-19T00:02:15.660Z,99117.91
2019-01-19T00:04:49.689Z,99113.20
2019-01-19T00:07:36.364Z,99101.63
2019-01-19T00:10:32.779Z,99109.95
2019-01-19T00:12:48.568Z,99098.70
2019-01-19T00:15:30.260Z,99092.11
2019-01-19T00:18:03.019Z,99097.34
2019-01-19T00:20:45.879Z,99110.52
2019-01-19T00:23:32.995Z,99104.20
2019-01-19T00:26:19.636Z,99114.45
2019-01-19T00:28:55.217Z,99117.56
2019-01-19T00:31:25.956Z,99125.47
2019-01-19T00:33:51.323Z,99117.61
2019-01-19T00:36:17.226Z,99118.05
2019-01-19T00:38:47.842Z,99126.91
2019-01-19T00:41:33.474Z,99115.87
2019-01-19T00:44:15.373Z,99105.81
2019-01-19T00:46:55.255Z,99089.06
2019-01-19T00:49:11.507Z,99079.61
2019-01-19T00:52:04.186Z,99073.17
2019-01-19T00:54:35.320Z,99069.06
2019-01-19T00:56:59.511Z,99076.14
2019-01-19T00:59:20.623Z,99075.08
2019-01-19T01:01:47.319Z,99074.03
2019-01-19T01:04:21.957Z,99062.77
2019-01-19T01:07:05.206Z,99063.06
2019-01-19T01:10:02.080Z,99066.27
2019-01-19T01:12:53.239Z,99067.05
2019-01-19T01:15:20.168Z,99075.95
2019-01-19T01:21:35.197Z,99068.48
2019-01-19T01:24:40.518Z,99058.84
2019-01-19T01:27:00.880Z,99050.22
2019-01-19T01:29:43.913Z,99046.39
2019-01-19T01:32:22.119Z,99048.55
2019-01-19T01:34:56.917Z,99047.77
2019-01-19T01:37:27.014Z,99036.75
2019-01-19T01:40:32.473Z,99056.34
2019-01-19T01:43:16.218Z,99059.22
2019-01-19T01:45:59.990Z,99076.41
2019-01-19T01:48:42.112Z,99079.73
2019-01-19T01:51:29.909Z,99079.33
2019-01-19T01:54:10.243Z,99077.06
2019-01-19T01:56:18.655Z,99074.23
2019-01-19T01:59:01.393Z,99075.19
2019-01-19T02:01:46.067Z,99074.54
2019-01-19T02:04:07.442Z,99072.08
2019-01-19T02:06:49.931Z,99079.46
2019-01-19T02:12:29.161Z,99093.72
2019-01-19T02:15:00.853Z,99095.38
2019-01-19T02:17:34.087Z,99098.72
2019-01-19T02:20:20.082Z,99109.75
2019-01-19T02:23:02.792Z,99116.29
2019-01-19T02:25:40.044Z,99125.43
2019-01-19T02:28:45.992Z,99126.59
2019-01-19T02:31:46.736Z,99126.12
2019-01-19T02:34:31.617Z,99125.09
2019-01-19T02:37:14.349Z,99132.87
2019-01-19T02:40:14.021Z,99116.53
2019-01-19T02:43:13.899Z,99127.69
2019-01-19T02:46:07.123Z,99131.75
2019-01-19T02:49:12.772Z,99123.88
2019-01-19T02:51:41.145Z,99126.56
2019-01-19T02:54:27.678Z,99114.41
2019-01-19T02:57:10.902Z,99115.34
2019-01-19T02:59:33.689Z,99102.47
2019-01-19T03:02:16.567Z,99114.69
2019-01-19T03:04:51.250Z,99115.47
2019-01-19T03:07:33.906Z,99110.42
2019-01-19T03:09:53.513Z,99112.30
2019-01-19T03:12:49.316Z,99107.00
2019-01-19T03:15:45.160Z,99104.91
2019-01-19T03:18:35.994Z,99098.47
2019-01-19T03:21:32.474Z,99105.23
2019-01-19T03:23:52.927Z,99100.48
2019-01-19T03:26:55.744Z,99097.77
2019-01-19T03:29:38.334Z,99102.42
2019-01-19T03:32:20.182Z,99097.92
2019-01-19T03:35:06.338Z,99096.88
2019-01-19T03:37:44.814Z,99103.42
2019-01-19T03:40:27.783Z,99096.78
2019-01-19T03:43:05.757Z,99088.98
2019-01-19T03:45:35.846Z,99081.64
2019-01-19T03:48:05.458Z,99072.27
2019-01-19T03:50:53.259Z,99072.61
2019-01-19T03:53:30.098Z,99064.80
2019-01-19T03:56:21.264Z,99054.74
2019-01-19T03:59:07.710Z,99053.79
2019-01-19T04:01:36.304Z,99051.20
2019-01-19T04:04:37.072Z,99045.23
2019-01-19T04:07:11.386Z,99049.72
2019-01-19T04:10:02.266Z,99039.52
2019-01-19T04:12:44.909Z,99025.72
2019-01-19T04:15:17.920Z,99028.52
2019-01-19T04:17:46.998Z,99032.06
2019-01-19T04:20:12.135Z,99030.94
2019-01-19T04:22:45.956Z,99029.33
2019-01-19T04:25:06.633Z,99034.38
2019-01-19T04:27:14.900Z,99037.27
2019-01-19T04:29:22.471Z,99035.91
2019-01-19T04:31:30.117Z,99034.78
2019-01-19T04:33:37.615Z,99028.11
2019-01-19T04:35:44.752Z,99032.52
2019-01-19T04:37:52.894Z,99019.09
2019-01-19T04:40:01.003Z,99015.90
2019-01-19T04:42:09.368Z,99008.63
2019-01-19T04:44:17.061Z,99006.13
2019-01-19T04:46:24.881Z,99002.81
2019-01-19T04:48:32.998Z,99000.55
2019-01-19T04:50:40.268Z,98995.78
2019-01-19T04:52:47.653Z,98989.64
2019-01-19T04:54:55.581Z,98993.14
2019-01-19T04:57:03.027Z,98991.52
2019-01-19T04:59:10.115Z,99000.33
2019-01-19T05:01:17.840Z,98997.96
2019-01-19T05:03:25.519Z,99000.02
2019-01-19T05:05:32.759Z,98996.17
2019-01-19T05:07:39.911Z,99000.02
2019-01-19T05:09:47.703Z,98996.18
2019-01-19T05:11:55.095Z,98996.92
2019-01-19T05:14:02.559Z,98994.70
2019-01-19T05:16:09.907Z,99000.41
2019-01-19T05:18:17.424Z,99001.80
2019-01-19T05:20:25.411Z,99003.75
2019-01-19T05:22:33.402Z,99007.96
2019-01-19T05:24:40.704Z,99010.58
2019-01-19T05:26:47.805Z,99008.26
2019-01-19T05:28:55.580Z,99008.42
2019-01-19T05:31:02.998Z,99020.83
2019-01-19T05:33:11.295Z,99016.08
2019-01-19T05:35:18.521Z,99014.52
2019-01-19T05:37:25.951Z,99021.42
2019-01-19T05:39:33.679Z,99022.89
2019-01-19T05:41:40.845Z,99025.52
2019-01-19T05:43:48.656Z,99016.72
2019-01-19T05:45:57.156Z,99023.58
2019-01-19T05:48:04.443Z,99016.52
2019-01-19T05:50:24.064Z,99013.20
2019-01-19T05:52:31.833Z,99009.48
2019-01-19T05:54:39.224Z,99016.34
2019-01-19T05:56:46.389Z,99001.80
2019-01-19T05:58:53.682Z,99006.39
2019-01-19T06:01:01.130Z,99002.45
2019-01-19T06:03:08.768Z,98997.94
2019-01-19T06:05:15.973Z,98999.50
2019-01-19T06:07:24.045Z,98997.94
2019-01-19T06:09:31.918Z,98992.74
2019-01-19T06:11:39.411Z,98984.54
2019-01-19T06:13:47.053Z,98978.12
2019-01-19T06:15:55.145Z,98970.98
2019-01-19T06:18:02.706Z,98970.14
2019-01-19T06:20:10.719Z,98972.19
2019-01-19T06:22:32.829Z,98966.69
2019-01-19T06:24:40.769Z,98950.23
2019-01-19T06:26:48.583Z,98943.32
2019-01-19T06:28:55.998Z,98934.29
2019-01-19T06:31:03.682Z,98944.80
2019-01-19T06:33:10.946Z,98939.25
2019-01-19T06:35:18.513Z,98942.39
2019-01-19T06:37:25.925Z,98940.23
2019-01-19T06:39:33.717Z,98934.01
2019-01-19T06:41:41.562Z,98930.62
2019-01-19T06:43:48.881Z,98936.88
2019-01-19T06:45:56.214Z,98930.12
2019-01-19T06:48:03.503Z,98924.45
2019-01-19T06:50:12.215Z,98923.08
2019-01-19T06:52:19.320Z,98919.02
2019-01-19T06:54:27.789Z,98928.38
2019-01-19T06:56:35.550Z,98922.22
2019-01-19T06:58:42.714Z,98918.84
2019-01-19T07:00:50.556Z,98926.11
2019-01-19T07:02:58.384Z,98919.94
2019-01-19T07:05:05.884Z,98905.65
2019-01-19T07:07:13.218Z,98905.70
2019-01-19T07:09:21.187Z,98910.23
2019-01-19T07:11:27.925Z,98894.96
2019-01-19T07:13:34.937Z,98899.13
2019-01-19T07:15:42.853Z,98887.64
2019-01-19T07:17:50.020Z,98890.53
2019-01-19T07:19:57.451Z,98889.77
2019-01-19T07:22:05.955Z,98886.16
2019-01-19T07:24:15.657Z,98903.22
2019-01-19T07:26:23.373Z,98900.87
2019-01-19T07:28:30.677Z,98903.79
2019-01-19T07:30:38.055Z,98906.55
2019-01-19T07:32:45.677Z,98906.16
2019-01-19T07:34:53.031Z,98905.21
2019-01-19T07:37:01.993Z,98899.02
2019-01-19T07:39:11.211Z,98906.50
2019-01-19T07:41:18.693Z,98902.33
2019-01-19T07:43:26.130Z,98903.98
2019-01-19T07:45:34.284Z,98905.12
2019-01-19T07:47:42.056Z,98899.58
2019-01-19T07:49:50.063Z,98906.57
2019-01-19T07:51:57.353Z,98904.95
2019-01-19T07:54:04.717Z,98899.99
2019-01-19T07:56:12.131Z,98906.13
2019-01-19T07:58:19.247Z,98905.30
2019-01-19T08:00:28.715Z,98907.94
2019-01-19T08:02:36.047Z,98901.50
2019-01-19T08:04:43.401Z,98898.09
2019-01-19T08:06:52.200Z,98896.06
2019-01-19T08:09:01.163Z,98897.42
2019-01-19T08:11:08.224Z,98893.66
2019-01-19T08:13:15.555Z,98890.16
2019-01-19T08:15:24.537Z,98887.38
2019-01-19T08:17:31.971Z,98889.25
2019-01-19T08:19:39.988Z,98899.45
2019-01-19T08:21:47.276Z,98898.31
2019-01-19T08:23:54.616Z,98894.78
2019-01-19T08:26:01.941Z,98891.13
2019-01-19T08:28:09.876Z,98885.63
2019-01-19T08:30:20.525Z,98874.20
2019-01-19T08:32:27.691Z,98872.86
2019-01-19T08:34:34.937Z,98871.20
2019-01-19T08:36:42.303Z,98860.83
2019-01-19T08:38:49.718Z,98848.67
2019-01-19T08:40:56.843Z,98861.12
2019-01-19T08:43:11.600Z,98856.16
2019-01-19T08:45:19.463Z,98851.78
2019-01-19T08:47:26.719Z,98855.50
2019-01-19T08:49:34.158Z,98857.37
2019-01-19T08:51:41.490Z,98848.95
2019-01-19T08:53:49.051Z,98849.47
2019-01-19T08:55:56.387Z,98820.92
2019-01-19T08:58:04.562Z,98858.88
2019-01-19T09:00:14.581Z,98848.48
2019-01-19T09:02:22.903Z,98850.76
2019-01-19T09:04:30.261Z,98840.23
2019-01-19T09:06:38.299Z,98835.64
2019-01-19T09:08:45.646Z,98820.86
2019-01-19T09:10:52.994Z,98825.30
2019-01-19T09:13:00.378Z,98824.42
2019-01-19T09:15:08.587Z,98792.80
2019-01-19T09:17:15.760Z,98829.35
2019-01-19T09:19:23.049Z,98809.84
2019-01-19T09:21:30.232Z,98813.29
2019-01-19T09:24:04.583Z,98806.23
2019-01-19T09:26:11.972Z,98808.20
2019-01-19T09:28:19.094Z,98796.70
2019-01-19T09:30:26.497Z,98790.78
2019-01-19T09:32:33.857Z,98781.67
2019-01-19T09:34:42.342Z,98779.90
2019-01-19T09:36:49.470Z,98786.56
2019-01-19T09:38:56.639Z,98777.02
2019-01-19T09:41:03.796Z,98782.85
2019-01-19T09:43:11.272Z,98761.99
2019-01-19T09:45:19.108Z,98765.00
2019-01-19T09:47:26.561Z,98752.60
2019-01-19T09:49:33.997Z,98746.28
2019-01-19T09:51:53.363Z,98751.28
2019-01-19T09:54:14.839Z,98740.48
2019-01-19T09:56:53.165Z,98743.62
2019-01-19T09:59:03.159Z,98744.75
2019-01-19T10:01:34.031Z,98738.22
2019-01-19T10:03:53.182Z,98733.22
2019-01-19T10:06:44.820Z,98725.52
2019-01-19T10:08:56.216Z,98730.20
2019-01-19T10:11:32.447Z,98755.88
2019-01-19T10:13:39.979Z,98748.08
2019-01-19T10:16:22.010Z,98737.22
2019-01-19T10:18:43.617Z,98746.22
2019-01-19T10:23:48.451Z,98733.66
2019-01-19T10:26:13.472Z,98732.97
2019-01-19T10:29:04.271Z,98730.53
2019-01-19T10:32:13.302Z,98730.50
2019-01-19T10:35:04.418Z,98741.78
2019-01-19T10:37:12.034Z,98747.38
2019-01-19T10:39:43.767Z,98745.11
2019-01-19T10:42:22.287Z,98741.02
2019-01-19T10:44:59.690Z,98736.73
2019-01-19T10:47:28.096Z,98744.32
2019-01-19T10:50:26.175Z,98759.02
2019-01-19T10:52:45.713Z,98770.36
2019-01-19T10:55:12.336Z,98773.50
2019-01-19T10:57:21.100Z,98783.19
2019-01-19T11:02:20.685Z,98774.80
2019-01-19T11:04:46.054Z,98778.89
2019-01-19T11:07:00.058Z,98777.02
2019-01-19T11:09:23.311Z,98781.37
2019-01-19T11:11:38.774Z,98782.55
2019-01-19T11:14:01.700Z,98788.53
2019-01-19T11:16:22.469Z,98788.68
2019-01-19T11:19:02.402Z,98784.08
2019-01-19T11:21:24.777Z,98774.94
2019-01-19T11:26:29.326Z,98774.22
2019-01-19T11:28:50.779Z,98775.27
2019-01-19T11:31:19.198Z,98776.73
2019-01-19T11:33:48.739Z,98789.19
2019-01-19T11:36:23.562Z,98800.59
2019-01-19T11:38:57.008Z,98788.45
2019-01-19T11:41:21.082Z,98790.33
2019-01-19T11:45:26.259Z,98787.30
2019-01-19T11:46:23.499Z,98780.10
2019-01-19T11:49:08.640Z,98776.09
2019-01-19T11:54:39.357Z,98784.45
2019-01-19T11:56:45.180Z,98791.70
2019-01-19T11:59:35.230Z,98786.22
2019-01-19T12:02:36.953Z,98785.22
2019-01-19T12:05:41.636Z,98778.52
2019-01-19T12:07:39.990Z,98772.63
2019-01-19T12:10:21.898Z,98780.58
2019-01-19T12:13:01.481Z,98790.74
2019-01-19T12:15:42.350Z,98797.55
2019-01-19T12:17:50.797Z,98812.05
2019-01-19T12:23:46.131Z,98819.15
2019-01-19T12:26:14.166Z,98821.05
2019-01-19T12:28:40.174Z,98821.19
2019-01-19T12:31:44.336Z,98819.05
2019-01-19T12:34:54.132Z,98816.35
2019-01-19T12:37:36.163Z,98827.55
2019-01-19T12:39:50.045Z,98828.19
2019-01-19T12:41:57.438Z,98810.38
2019-01-19T12:44:08.434Z,98808.74
2019-01-19T12:47:00.921Z,98800.91
2019-01-19T12:49:08.403Z,98792.73
2019-01-19T12:51:16.356Z,98802.33
2019-01-19T12:56:47.175Z,98806.63
2019-01-19T13:00:10.640Z,98804.20
2019-01-19T13:02:07.951Z,98808.67
2019-01-19T13:03:53.846Z,98798.75
2019-01-19T13:09:15.672Z,98823.18
2019-01-19T13:11:53.301Z,98823.06
2019-01-19T13:14:27.055Z,98817.06
2019-01-19T13:17:09.827Z,98815.66
2019-01-19T13:26:32.255Z,98828.25
2019-01-19T13:33:52.680Z,98840.91
2019-01-19T13:35:36.070Z,98829.25
2019-01-19T13:38:04.274Z,98816.10
2019-01-19T13:40:57.822Z,98817.77
2019-01-19T13:43:55.633Z,98811.39
2019-01-19T13:49:42.912Z,98806.11
2019-01-19T13:59:59.062Z,98790.64
2019-01-19T14:05:39.532Z,98790.12
2019-01-19T14:08:22.998Z,98783.40
2019-01-19T14:10:41.953Z,98782.70
2019-01-19T14:13:45.033Z,98780.58
2019-01-19T14:16:21.409Z,98781.62
2019-01-19T14:19:08.060Z,98780.56
2019-01-19T14:21:45.353Z,98796.06
2019-01-19T14:24:09.722Z,98796.61
2019-01-19T14:26:41.054Z,98800.97
2019-01-19T14:29:40.403Z,98798.03
2019-01-19T14:32:31.492Z,98796.98
2019-01-19T14:35:06.269Z,98803.93
2019-01-19T14:37:48.776Z,98819.30
2019-01-19T14:40:42.622Z,98813.18
2019-01-19T14:43:18.049Z,98814.84
2019-01-19T14:45:59.874Z,98806.64
2019-01-19T14:48:31.026Z,98810.63
2019-01-19T14:51:22.412Z,98829.50
2019-01-19T14:54:23.804Z,98830.81
2019-01-19T14:56:57.090Z,98834.81
2019-01-19T14:59:25.658Z,98861.81
2019-01-19T15:02:00.640Z,98835.56
2019-01-19T15:04:50.634Z,98812.59
2019-01-19T15:07:41.968Z,98772.23
2019-01-19T15:10:15.434Z,98799.56
2019-01-19T15:12:59.266Z,98801.28
2019-01-19T15:15:51.150Z,98798.73
2019-01-19T15:18:28.269Z,98793.55
2019-01-19T15:21:12.915Z,98818.05
2019-01-19T15:23:41.578Z,98818.84
2019-01-19T15:29:50.191Z,98825.16
2019-01-19T15:33:09.146Z,98851.52
2019-01-19T15:35:10.688Z,98847.81
2019-01-19T15:37:58.098Z,98850.08
2019-01-19T15:40:36.511Z,98869.52
2019-01-19T15:43:36.184Z,98863.21
2019-01-19T15:46:49.710Z,98861.62
2019-01-19T15:49:45.651Z,98852.55
2019-01-19T15:52:42.509Z,98846.77
2019-01-19T15:55:59.271Z,98831.63
2019-01-19T15:58:53.058Z,98837.65
2019-01-19T16:04:44.208Z,98833.28
2019-01-19T16:07:38.133Z,98857.23
2019-01-19T16:10:37.235Z,98856.31
2019-01-19T16:13:32.887Z,98851.35
2019-01-19T16:16:29.870Z,98847.43
2019-01-19T16:19:34.548Z,98859.48
2019-01-19T16:22:20.334Z,98862.38
2019-01-19T16:24:59.655Z,98858.15
2019-01-19T16:27:40.480Z,98866.67
2019-01-19T16:30:37.351Z,98859.57
2019-01-19T16:33:48.383Z,98849.88
2019-01-19T16:36:42.404Z,98841.27
2019-01-19T16:39:00.475Z,98852.13
2019-01-19T16:41:49.691Z,98841.72
2019-01-19T16:44:27.353Z,98842.80
2019-01-19T16:47:01.212Z,98848.41
2019-01-19T16:49:26.619Z,98843.06
2019-01-19T16:52:17.594Z,98830.56
2019-01-19T16:55:16.059Z,98823.41
2019-01-19T16:57:59.545Z,98841.76
2019-01-19T17:00:58.130Z,98841.83
2019-01-19T17:03:47.463Z,98833.45
2019-01-19T17:06:29.647Z,98855.27
2019-01-19T17:09:20.376Z,98846.55
2019-01-19T17:12:31.380Z,98832.92
2019-01-19T17:18:10.292Z,98819.60
2019-01-19T17:24:10.644Z,98790.16
2019-01-19T17:26:36.882Z,98781.37
2019-01-19T17:29:18.563Z,98778.70
2019-01-19T17:32:03.594Z,98785.02
2019-01-19T17:34:56.901Z,98799.08
2019-01-19T17:37:44.135Z,98792.55
2019-01-19T17:40:21.516Z,98793.73
2019-01-19T17:42:56.117Z,98808.57
2019-01-19T17:45:47.793Z,98829.17
2019-01-19T17:48:39.739Z,98809.32
2019-01-19T17:51:08.061Z,98801.62
2019-01-19T17:53:53.023Z,98798.20
2019-01-19T17:56:32.644Z,98802.47
2019-01-19T17:59:05.727Z,98809.16
2019-01-19T18:01:47.309Z,98808.77
2019-01-19T18:04:21.842Z,98813.38
2019-01-19T18:07:02.693Z,98794.97
2019-01-19T18:13:15.931Z,98775.23
2019-01-19T18:16:30.327Z,98772.07
2019-01-19T18:19:47.306Z,98759.77
2019-01-19T18:23:19.609Z,98745.07
2019-01-19T18:25:24.329Z,98728.73
2019-01-19T18:28:23.103Z,98704.24
2019-01-19T18:30:28.456Z,98710.13
2019-01-19T18:32:56.566Z,98718.13
2019-01-19T18:35:30.947Z,98713.01
2019-01-19T18:38:09.182Z,98711.24
2019-01-19T18:43:43.325Z,98709.08
2019-01-19T18:46:32.052Z,98698.53
2019-01-19T18:49:04.249Z,98685.76
2019-01-19T18:52:05.073Z,98673.41
2019-01-19T18:54:50.895Z,98685.55
2019-01-19T18:57:37.627Z,98697.58
2019-01-19T19:00:34.372Z,98680.59
2019-01-19T19:03:21.000Z,98677.72
2019-01-19T19:06:21.216Z,98669.79
2019-01-19T19:09:11.882Z,98665.84
2019-01-19T19:15:41.265Z,98657.34
2019-01-19T19:18:32.325Z,98656.86
2019-01-19T19:21:35.034Z,98665.78
2019-01-19T19:24:40.340Z,98662.27
2019-01-19T19:27:38.315Z,98659.86
2019-01-19T19:30:25.030Z,98651.24
2019-01-19T19:32:50.884Z,98644.48
2019-01-19T19:36:08.602Z,98643.43
2019-01-19T19:38:57.292Z,98643.97
2019-01-19T19:42:43.525Z,98640.16
2019-01-19T19:45:21.365Z,98646.88
2019-01-19T19:48:04.295Z,98650.21
2019-01-19T19:50:53.864Z,98639.55
2019-01-19T19:55:43.427Z,98652.63
2019-01-19T19:57:51.192Z,98641.64
2019-01-19T20:02:11.702Z,98644.25
2019-01-19T20:03:37.872Z,98647.50
2019-01-19T20:06:26.120Z,98633.34
2019-01-19T20:08:55.848Z,98627.05
2019-01-19T20:10:48.131Z,98623.69
2019-01-19T20:16:51.753Z,98619.13
2019-01-19T20:19:08.442Z,98633.30
2019-01-19T20:24:29.775Z,98624.00
2019-01-19T20:27:20.638Z,98621.19
2019-01-19T20:30:05.181Z,98625.36
2019-01-19T20:32:31.609Z,98621.00
2019-01-19T20:35:24.541Z,98628.13
2019-01-19T20:37:42.359Z,98626.75
2019-01-19T20:45:17.888Z,98632.88
2019-01-19T20:47:44.953Z,98629.48
2019-01-19T20:50:18.950Z,98624.11
2019-01-19T20:52:55.915Z,98630.69
2019-01-19T20:55:08.865Z,98623.55
2019-01-19T20:57:31.444Z,98635.72
2019-01-19T20:59:51.290Z,98635.52
2019-01-19T21:02:17.943Z,98629.56
2019-01-19T21:04:33.692Z,98640.71
2019-01-19T21:07:02.391Z,98638.36
2019-01-19T21:10:00.575Z,98644.55
2019-01-19T21:15:22.512Z,98650.75
2019-01-19T21:17:42.476Z,98647.02
2019-01-19T21:20:04.373Z,98655.73
2019-01-19T21:22:51.231Z,98648.17
2019-01-19T21:25:10.912Z,98653.22
2019-01-19T21:27:40.726Z,98659.27
2019-01-19T21:30:42.735Z,98662.27
2019-01-19T21:33:19.811Z,98673.64
2019-01-19T21:35:56.971Z,98678.80
2019-01-19T21:38:05.071Z,98690.25
2019-01-19T21:40:24.952Z,98685.13
2019-01-19T21:43:12.388Z,98683.95
2019-01-19T21:45:59.663Z,98680.06
2019-01-19T21:48:10.998Z,98688.53
2019-01-19T21:50:26.962Z,98696.94
2019-01-19T21:52:44.964Z,98705.19
2019-01-19T21:55:15.809Z,98722.06
2019-01-19T21:57:38.159Z,98728.04
2019-01-19T21:59:47.463Z,98726.25
2019-01-19T22:02:16.807Z,98738.78
2019-01-19T22:04:46.187Z,98743.63
2019-01-19T22:07:19.714Z,98745.80
2019-01-19T22:09:32.512Z,98754.31
2019-01-19T22:12:02.984Z,98755.91
2019-01-19T22:14:36.481Z,98748.33
2019-01-19T22:16:55.621Z,98754.52
2019-01-19T22:19:38.091Z,98764.49
2019-01-19T22:21:53.971Z,98763.22
2019-01-19T22:24:09.276Z,98764.95
2019-01-19T22:26:20.158Z,98771.61
2019-01-19T22:28:40.162Z,98776.56
2019-01-19T22:31:12.404Z,98782.80
2019-01-19T22:33:22.855Z,98785.98
2019-01-19T22:35:59.321Z,98791.42
2019-01-19T22:38:06.606Z,98785.53
2019-01-19T22:40:56.289Z,98794.73
2019-01-19T22:43:18.819Z,98795.63
2019-01-19T22:48:29.175Z,98793.49
2019-01-19T22:50:41.197Z,98795.00
2019-01-19T22:53:18.002Z,98788.61
2019-01-19T22:55:18.691Z,98804.27
2019-01-19T22:57:36.050Z,98799.36
2019-01-19T22:59:55.991Z,98791.85
2019-01-19T23:02:16.139Z,98799.13
2019-01-19T23:04:59.602Z,98797.22
2019-01-19T23:07:02.685Z,98783.80
2019-01-19T23:09:32.666Z,98783.28
2019-01-19T23:12:47.799Z,98793.36
2019-01-19T23:15:12.736Z,98796.16
2019-01-19T23:20:10.042Z,98800.78
2019-01-19T23:22:30.794Z,98804.73
2019-01-19T23:24:44.427Z,98812.17
2019-01-19T23:27:13.294Z,98810.75
2019-01-19T23:29:21.385Z,98819.61
2019-01-19T23:31:35.611Z,98816.25
2019-01-19T23:33:50.168Z,98800.38
2019-01-19T23:36:06.736Z,98805.77
2019-01-19T23:38:24.268Z,98809.84
2019-01-19T23:40:44.222Z,98813.72
2019-01-19T23:43:01.967Z,98826.67
2019-01-19T23:48:08.796Z,98825.66
2019-01-19T23:50:53.276Z,98832.74
2019-01-19T23:53:07.147Z,98837.30
